CDT,Max TemperatureF,Mean TemperatureF,Min TemperatureF,Max Dew PointF,MeanDew PointF,Min DewpointF,Max Humidity, Mean Humidity, Min Humidity, Max Sea Level PressureIn, Mean Sea Level PressureIn, Min Sea Level PressureIn, Max VisibilityMiles, Mean VisibilityMiles, Min VisibilityMiles, Max Wind SpeedMPH, Mean Wind SpeedMPH, Max Gust SpeedMPH,PrecipitationIn, CloudCover, Events, WindDirDegrees
2013-9-1,84,76,68,71,68,66,97,79,61,29.84,29.80,29.76,10,5,1,13,5,16,0.00,5,,272
2013-9-2,85,74,62,64,59,55,81,59,37,29.96,29.90,29.82,10,10,10,14,9,17,0.00,1,,340
2013-9-3,79,67,54,59,55,52,93,68,42,30.10,30.05,29.98,10,7,0,9,4,,0.00,1,Fog,43
2013-9-4,85,69,53,60,55,49,93,64,34,30.17,30.13,30.08,10,10,9,9,2,13,0.00,0,,248
2013-9-5,87,72,57,63,58,54,90,62,34,30.21,30.17,30.14,10,10,7,9,2,14,0.00,0,,86
2013-9-6,87,73,58,64,61,56,93,68,42,30.19,30.13,30.05,10,10,7,14,3,18,0.00,0,,185
2013-9-7,90,77,64,66,63,59,87,62,37,30.06,29.99,29.92,10,9,4,18,7,24,0.00,0,,217
2013-9-8,88,78,68,68,67,64,90,69,48,29.99,29.94,29.91,10,9,5,10,3,20,T,1,Rain,168
2013-9-9,96,82,67,71,69,65,93,66,39,29.96,29.93,29.89,10,6,2,18,9,22,0.00,1,,204
2013-9-10,97,84,71,71,67,62,87,60,33,30.07,30.03,29.96,9,7,3,17,8,23,0.00,0,,219
2013-9-11,95,83,70,70,65,60,84,59,33,30.12,30.06,30.01,10,8,5,18,8,24,0.00,0,,236
2013-9-12,85,73,60,68,60,45,90,59,28,30.08,30.02,29.96,10,9,2,23,10,29,0.13,3,Rain,308
2013-9-13,74,61,48,54,47,40,93,63,33,30.16,30.11,30.06,10,10,10,20,9,25,0.00,2,,17
2013-9-14,74,58,41,45,41,35,92,59,25,30.19,30.13,30.07,10,10,10,13,6,15,0.00,0,,129
2013-9-15,78,66,53,61,51,45,93,65,36,30.12,30.06,30.00,10,10,4,21,9,20,0.01,4,Rain,207
2013-9-16,69,60,50,56,53,47,93,73,53,30.31,30.24,30.14,10,8,3,21,10,25,0.00,6,,45
2013-9-17,76,62,48,53,50,46,93,67,41,30.31,30.22,30.10,10,9,7,24,6,16,0.00,3,,106
2013-9-18,85,74,63,68,62,53,84,70,55,30.12,30.04,29.97,10,10,8,17,10,22,T,4,Rain,173
2013-9-19,93,83,72,70,68,65,87,64,41,30.00,29.93,29.84,10,9,6,20,12,30,T,1,,202
2013-9-20,78,68,58,69,64,50,97,80,63,29.91,29.88,29.84,10,8,1,18,8,24,0.38,6,Rain-Thunderstorm,258
2013-9-21,73,63,53,51,48,43,83,60,37,29.94,29.91,29.87,10,10,10,16,8,20,0.00,1,,326
2013-9-22,75,60,44,49,45,41,93,62,31,30.05,30.00,29.96,10,10,7,8,3,14,0.00,0,,34
2013-9-23,76,60,44,47,44,40,93,60,27,30.09,30.03,29.99,10,10,10,15,7,20,0.00,0,,112
2013-9-24,80,62,44,59,51,43,92,67,42,30.01,29.94,29.86,10,10,9,9,5,12,0.01,1,Rain,101
2013-9-25,83,68,53,59,55,51,93,65,37,29.92,29.88,29.85,10,10,9,12,5,15,0.00,2,,57
2013-9-26,84,68,51,55,50,46,93,61,28,30.06,30.01,29.92,10,10,9,10,4,28,0.00,0,,98
2013-9-27,83,65,46,53,48,43,86,58,30,30.16,30.09,30.05,10,10,9,15,5,23,0.00,0,,136
2013-9-28,84,67,49,59,54,48,93,64,34,30.09,30.02,29.95,10,10,9,28,11,35,T,3,,179
2013-9-29,75,62,48,63,52,43,90,62,33,30.06,30.01,29.97,10,10,10,17,7,22,0.06,3,Rain,346
2013-9-30,76,59,42,60,52,41,100,72,43,30.02,29.97,29.92,10,8,0,17,6,21,0.00,2,Fog,183